createdAt,value
2022-08-04T00:00:04.462Z,16.02
2022-08-04T00:02:59.478Z,15.99
2022-08-04T00:06:10.473Z,15.97
2022-08-04T00:08:46.611Z,15.92
2022-08-04T00:11:37.488Z,15.90
2022-08-04T00:14:17.605Z,15.89
2022-08-04T00:17:04.480Z,15.88
2022-08-04T00:19:47.544Z,15.84
2022-08-04T00:22:36.500Z,15.78
2022-08-04T00:25:12.559Z,15.76
2022-08-04T00:28:00.483Z,15.75
2022-08-04T00:30:33.554Z,15.74
2022-08-04T00:33:32.483Z,15.69
2022-08-04T00:36:20.494Z,15.62
2022-08-04T00:38:54.596Z,15.55
2022-08-04T00:42:07.501Z,15.51
2022-08-04T00:45:15.563Z,15.50
2022-08-04T00:48:23.521Z,15.47
2022-08-04T00:51:48.503Z,15.47
2022-08-04T00:55:14.514Z,15.42
2022-08-04T00:58:28.506Z,15.39
2022-08-04T01:01:23.554Z,15.37
2022-08-04T01:04:33.490Z,15.31
2022-08-04T01:07:29.536Z,15.26
2022-08-04T01:10:07.757Z,15.28
2022-08-04T01:13:03.541Z,15.28
2022-08-04T01:15:56.511Z,15.25
2022-08-04T01:19:05.505Z,15.25
2022-08-04T01:22:16.510Z,15.21
2022-08-04T01:25:14.505Z,15.19
2022-08-04T01:28:37.970Z,15.14
2022-08-04T01:31:58.527Z,15.11
2022-08-04T01:34:43.526Z,15.09
2022-08-04T01:37:41.508Z,15.04
2022-08-04T01:40:22.517Z,15.00
2022-08-04T01:43:17.516Z,14.94
2022-08-04T01:46:06.524Z,14.90
2022-08-04T01:48:44.609Z,14.87
2022-08-04T01:51:31.511Z,14.86
2022-08-04T01:54:05.609Z,14.82
2022-08-04T01:56:56.555Z,14.78
2022-08-04T01:59:31.670Z,14.76
2022-08-04T02:02:18.637Z,14.74
2022-08-04T02:04:52.242Z,14.72
2022-08-04T02:07:53.544Z,14.68
2022-08-04T02:10:48.651Z,14.63
2022-08-04T02:13:46.546Z,14.62
2022-08-04T02:16:44.600Z,14.58
2022-08-04T02:19:42.549Z,14.51
2022-08-04T02:22:22.628Z,14.49
2022-08-04T02:25:15.562Z,14.48
2022-08-04T02:28:21.655Z,14.45
2022-08-04T02:31:14.560Z,14.43
2022-08-04T02:33:58.634Z,14.39
2022-08-04T02:36:47.546Z,14.38
2022-08-04T02:39:25.754Z,14.36
2022-08-04T02:42:12.562Z,14.34
2022-08-04T02:44:46.632Z,14.31
2022-08-04T02:48:28.769Z,14.27
2022-08-04T02:50:37.576Z,14.24
2022-08-04T02:53:21.559Z,14.20
2022-08-04T02:56:07.546Z,14.19
2022-08-04T02:58:42.662Z,14.17
2022-08-04T03:01:30.630Z,14.12
2022-08-04T03:04:24.722Z,14.10
2022-08-04T03:08:06.547Z,14.06
2022-08-04T03:11:12.576Z,14.03
2022-08-04T03:14:01.649Z,14.00
2022-08-04T03:17:23.695Z,13.99
2022-08-04T03:20:31.574Z,13.96
2022-08-04T03:24:20.010Z,13.93
2022-08-04T03:27:17.573Z,13.90
2022-08-04T03:30:14.041Z,13.91
2022-08-04T03:33:38.573Z,13.92
2022-08-04T03:36:55.618Z,13.92
2022-08-04T03:39:58.571Z,13.87
2022-08-04T03:42:50.612Z,13.86
2022-08-04T03:45:39.592Z,13.84
2022-08-04T03:49:10.596Z,13.80
2022-08-04T03:52:53.599Z,13.79
2022-08-04T03:55:58.612Z,13.79
2022-08-04T03:58:50.584Z,13.79
2022-08-04T04:02:02.450Z,13.78
2022-08-04T04:05:17.592Z,13.74
2022-08-04T04:08:46.633Z,13.77
2022-08-04T04:11:55.468Z,13.78
2022-08-04T04:15:07.636Z,13.79
2022-08-04T04:18:38.610Z,13.78
2022-08-04T04:21:35.608Z,13.79
2022-08-04T04:24:50.616Z,13.79
2022-08-04T04:28:44.488Z,13.80
2022-08-04T04:31:25.616Z,13.82
2022-08-04T04:34:26.612Z,13.82
2022-08-04T04:37:31.623Z,13.83
2022-08-04T04:40:45.601Z,13.88
2022-08-04T04:43:52.312Z,13.94
2022-08-04T04:46:49.606Z,14.05
2022-08-04T04:49:56.621Z,14.18
2022-08-04T04:52:49.619Z,14.32
2022-08-04T04:55:32.706Z,14.47
2022-08-04T04:58:24.613Z,14.62
2022-08-04T05:01:33.640Z,14.79
2022-08-04T05:04:41.630Z,14.96
2022-08-04T05:07:17.728Z,15.11
2022-08-04T05:10:21.624Z,15.27
2022-08-04T05:14:34.835Z,15.42
2022-08-04T05:16:52.624Z,15.63
2022-08-04T05:20:05.619Z,15.77
2022-08-04T05:23:01.638Z,15.94
2022-08-04T05:26:05.717Z,16.11
2022-08-04T05:29:00.638Z,16.27
2022-08-04T05:31:49.639Z,16.42
2022-08-04T05:34:48.634Z,16.57
2022-08-04T05:37:38.664Z,16.74
2022-08-04T05:40:13.740Z,16.89
2022-08-04T05:43:02.631Z,17.04
2022-08-04T05:45:43.666Z,17.19
2022-08-04T05:48:31.635Z,17.33
2022-08-04T05:51:05.709Z,17.48
2022-08-04T05:53:53.651Z,17.63
2022-08-04T05:56:26.792Z,17.78
2022-08-04T05:59:14.674Z,17.91
2022-08-04T06:01:57.544Z,18.05
2022-08-04T06:04:53.659Z,18.20
2022-08-04T06:08:12.169Z,18.35
2022-08-04T06:10:55.654Z,18.51
2022-08-04T06:13:49.448Z,18.64
2022-08-04T06:16:51.397Z,18.78
2022-08-04T06:20:01.201Z,18.92
2022-08-04T06:22:36.657Z,19.05
2022-08-04T06:25:12.822Z,19.18
2022-08-04T06:28:01.663Z,19.35
2022-08-04T06:30:37.746Z,19.51
2022-08-04T06:33:55.041Z,19.65
2022-08-04T06:36:50.666Z,19.81
2022-08-04T06:39:46.805Z,19.95
2022-08-04T06:42:42.675Z,20.08
2022-08-04T06:45:38.709Z,20.20
2022-08-04T06:48:33.110Z,20.35
2022-08-04T06:51:28.278Z,20.50
2022-08-04T06:54:21.685Z,20.64
2022-08-04T06:56:56.758Z,20.79
2022-08-04T06:59:43.703Z,20.91
2022-08-04T07:02:21.776Z,21.02
2022-08-04T07:05:08.706Z,21.12
2022-08-04T07:07:56.948Z,21.22
2022-08-04T07:10:45.676Z,21.28
2022-08-04T07:13:26.716Z,21.39
2022-08-04T07:16:14.724Z,21.51
2022-08-04T07:18:47.795Z,21.63
2022-08-04T07:21:34.706Z,21.77
2022-08-04T07:24:07.812Z,21.85
2022-08-04T07:26:57.708Z,21.95
2022-08-04T07:29:31.793Z,22.07
2022-08-04T07:32:20.750Z,22.15
2022-08-04T07:35:02.706Z,22.34
2022-08-04T07:37:56.734Z,22.50
2022-08-04T07:40:46.731Z,22.67
2022-08-04T07:43:22.842Z,22.82
2022-08-04T07:46:09.716Z,22.98
2022-08-04T07:48:42.800Z,23.09
2022-08-04T07:51:29.734Z,23.12
2022-08-04T07:54:05.072Z,23.23
2022-08-04T07:56:46.749Z,23.42
2022-08-04T07:59:26.807Z,23.70
2022-08-04T08:02:07.728Z,24.07
2022-08-04T08:04:47.734Z,24.41
2022-08-04T08:07:21.006Z,24.27
2022-08-04T08:10:07.754Z,24.23
2022-08-04T08:12:51.411Z,24.27
2022-08-04T08:15:32.716Z,24.18
2022-08-04T08:18:12.760Z,24.32
2022-08-04T08:20:46.342Z,24.31
2022-08-04T08:23:32.741Z,24.26
2022-08-04T08:26:06.843Z,24.53
2022-08-04T08:28:53.760Z,24.61
2022-08-04T08:31:55.584Z,24.54
2022-08-04T08:34:47.738Z,24.30
2022-08-04T08:37:59.751Z,24.24
2022-08-04T08:40:54.887Z,24.25
2022-08-04T08:44:05.367Z,24.27
2022-08-04T08:47:29.745Z,24.28
2022-08-04T08:51:08.774Z,24.22
2022-08-04T08:54:14.746Z,24.12
2022-08-04T08:57:09.845Z,24.12
2022-08-04T09:00:14.747Z,24.14
2022-08-04T09:03:15.878Z,24.18
2022-08-04T09:06:05.773Z,24.17
2022-08-04T09:09:03.786Z,24.14
2022-08-04T09:12:04.778Z,24.10
2022-08-04T09:15:00.807Z,24.17
2022-08-04T09:17:45.770Z,24.26
2022-08-04T09:20:42.781Z,24.33
2022-08-04T09:23:47.974Z,24.39
2022-08-04T09:26:45.778Z,24.37
2022-08-04T09:29:49.798Z,24.35
2022-08-04T09:33:45.518Z,24.36
2022-08-04T09:37:00.801Z,24.34
2022-08-04T09:40:14.675Z,24.37
2022-08-04T09:43:59.344Z,24.38
2022-08-04T09:46:48.783Z,24.42
2022-08-04T09:49:49.863Z,24.40
2022-08-04T09:52:59.807Z,24.34
2022-08-04T09:55:53.536Z,24.31
2022-08-04T09:58:58.791Z,24.28
2022-08-04T10:01:41.809Z,24.26
2022-08-04T10:04:36.797Z,24.22
2022-08-04T10:07:30.816Z,24.18
2022-08-04T10:10:49.815Z,24.13
2022-08-04T10:13:42.840Z,24.15
2022-08-04T10:16:27.912Z,24.19
2022-08-04T10:19:33.809Z,24.22
2022-08-04T10:23:09.287Z,24.22
2022-08-04T10:26:19.838Z,24.21
2022-08-04T10:29:18.840Z,24.16
2022-08-04T10:32:07.803Z,24.10
2022-08-04T10:35:26.831Z,24.08
2022-08-04T10:38:29.838Z,24.17
2022-08-04T10:41:07.959Z,24.26
2022-08-04T10:44:29.829Z,24.39
2022-08-04T10:47:29.847Z,24.46
2022-08-04T10:50:26.829Z,24.56
2022-08-04T10:53:23.846Z,24.59
2022-08-04T10:56:11.840Z,24.56
2022-08-04T10:59:02.863Z,24.55
2022-08-04T11:01:59.598Z,24.54
2022-08-04T11:04:54.831Z,24.50
2022-08-04T11:07:28.938Z,24.50
2022-08-04T11:10:15.834Z,24.46
2022-08-04T11:12:55.947Z,24.46
2022-08-04T11:15:51.855Z,24.54
2022-08-04T11:18:56.873Z,24.61
2022-08-04T11:21:50.867Z,24.60
2022-08-04T11:24:36.846Z,24.62
2022-08-04T11:27:48.850Z,24.59
2022-08-04T11:30:58.870Z,24.53
2022-08-04T11:34:07.883Z,24.52
2022-08-04T11:37:23.717Z,24.53
2022-08-04T11:40:03.945Z,24.59
2022-08-04T11:43:01.865Z,24.63
2022-08-04T11:45:40.962Z,24.66
2022-08-04T11:48:38.879Z,24.72
2022-08-04T11:51:12.950Z,24.73
2022-08-04T11:54:00.867Z,24.73
2022-08-04T11:56:36.999Z,24.78
2022-08-04T11:59:28.908Z,24.87
2022-08-04T12:02:21.442Z,24.89
2022-08-04T12:05:08.888Z,24.88
2022-08-04T12:08:08.898Z,24.84
2022-08-04T12:11:38.928Z,24.74
2022-08-04T12:14:41.897Z,24.68
2022-08-04T12:17:52.141Z,24.62
2022-08-04T12:20:40.640Z,24.55
2022-08-04T12:23:37.233Z,24.45
2022-08-04T12:26:20.901Z,24.41
2022-08-04T12:29:10.491Z,24.34
2022-08-04T12:31:55.036Z,24.28
2022-08-04T12:35:01.901Z,24.22
2022-08-04T12:38:15.906Z,24.15
2022-08-04T12:40:55.971Z,24.10
2022-08-04T12:43:49.182Z,24.06
2022-08-04T12:46:37.917Z,24.04
2022-08-04T12:49:28.934Z,24.07
2022-08-04T12:52:10.927Z,24.06
2022-08-04T12:55:00.914Z,24.01
2022-08-04T12:57:41.943Z,23.99
2022-08-04T13:00:42.425Z,23.93
2022-08-04T13:03:19.733Z,23.96
2022-08-04T13:06:06.950Z,23.99
2022-08-04T13:08:43.998Z,24.04
2022-08-04T13:11:30.919Z,24.06
2022-08-04T13:14:26.621Z,24.10
2022-08-04T13:17:22.133Z,24.03
2022-08-04T13:20:14.922Z,23.96
2022-08-04T13:22:56.951Z,23.93
2022-08-04T13:26:44.749Z,23.89
2022-08-04T13:28:53.935Z,23.80
2022-08-04T13:31:52.890Z,23.75
2022-08-04T13:34:52.498Z,23.72
2022-08-04T13:37:45.931Z,23.69
2022-08-04T13:40:30.942Z,23.69
2022-08-04T13:44:15.495Z,23.67
2022-08-04T13:47:04.951Z,23.66
2022-08-04T13:49:54.486Z,23.64
2022-08-04T13:52:48.963Z,23.61
2022-08-04T13:55:43.062Z,23.64
2022-08-04T13:58:31.954Z,23.68
2022-08-04T14:01:17.359Z,23.70
2022-08-04T14:04:09.952Z,23.70
2022-08-04T14:06:51.081Z,23.69
2022-08-04T14:09:39.975Z,23.65
2022-08-04T14:12:45.433Z,23.63
2022-08-04T14:16:00.999Z,23.62
2022-08-04T14:18:39.966Z,23.60
2022-08-04T14:21:24.066Z,23.60
2022-08-04T14:24:11.960Z,23.63
2022-08-04T14:26:51.946Z,23.63
2022-08-04T14:29:45.979Z,23.60
2022-08-04T14:32:21.734Z,23.59
2022-08-04T14:35:26.482Z,23.55
2022-08-04T14:39:03.004Z,23.51
2022-08-04T14:41:55.999Z,23.49
2022-08-04T14:44:36.002Z,23.52
2022-08-04T14:47:23.033Z,23.59
2022-08-04T14:50:09.394Z,23.61
2022-08-04T14:53:04.050Z,23.61
2022-08-04T14:55:52.997Z,23.63
2022-08-04T14:58:38.739Z,23.62
2022-08-04T15:01:26.043Z,23.59
2022-08-04T15:04:01.140Z,23.58
2022-08-04T15:06:53.009Z,23.63
2022-08-04T15:09:27.083Z,23.71
2022-08-04T15:12:14.015Z,23.73
2022-08-04T15:14:47.090Z,23.69
2022-08-04T15:17:34.004Z,23.65
2022-08-04T15:20:07.605Z,23.63
2022-08-04T15:22:54.009Z,23.59
2022-08-04T15:25:27.079Z,23.55
2022-08-04T15:28:20.018Z,23.53
2022-08-04T15:31:10.685Z,23.56
2022-08-04T15:34:16.030Z,23.56
2022-08-04T15:37:11.022Z,23.54
2022-08-04T15:40:37.034Z,23.52
2022-08-04T15:43:55.733Z,23.49
2022-08-04T15:46:56.049Z,23.46
2022-08-04T15:49:38.026Z,23.44
2022-08-04T15:52:32.157Z,23.42
2022-08-04T15:55:49.047Z,23.37
2022-08-04T15:58:56.036Z,23.34
2022-08-04T16:01:30.255Z,23.31
2022-08-04T16:04:28.032Z,23.28
2022-08-04T16:07:12.114Z,23.26
2022-08-04T16:09:52.061Z,23.24
2022-08-04T16:13:01.468Z,23.20
2022-08-04T16:15:55.127Z,23.20
2022-08-04T16:18:42.054Z,23.17
2022-08-04T16:21:35.033Z,23.14
2022-08-04T16:24:44.056Z,23.10
2022-08-04T16:27:26.055Z,23.08
2022-08-04T16:30:15.156Z,23.06
2022-08-04T16:32:51.197Z,23.03
2022-08-04T16:35:45.043Z,23.00
2022-08-04T16:38:33.077Z,22.99
2022-08-04T16:41:09.320Z,22.99
2022-08-04T16:43:56.092Z,22.96
2022-08-04T16:47:22.200Z,22.96
2022-08-04T16:50:09.041Z,22.91
2022-08-04T16:52:57.070Z,22.88
2022-08-04T16:55:46.058Z,22.84
2022-08-04T16:58:19.196Z,22.81
2022-08-04T17:01:32.238Z,22.75
2022-08-04T17:04:15.094Z,22.70
2022-08-04T17:07:07.121Z,22.64
2022-08-04T17:09:47.104Z,22.61
2022-08-04T17:12:43.085Z,22.57
2022-08-04T17:15:32.080Z,22.51
2022-08-04T17:18:22.216Z,22.47
2022-08-04T17:21:18.069Z,22.43
2022-08-04T17:24:15.152Z,22.40
2022-08-04T17:28:09.826Z,22.36
2022-08-04T17:30:47.952Z,22.27
2022-08-04T17:33:54.636Z,22.19
2022-08-04T17:36:37.177Z,22.11
2022-08-04T17:39:27.136Z,22.05
2022-08-04T17:42:10.092Z,22.01
2022-08-04T17:48:24.168Z,21.91
2022-08-04T17:52:04.929Z,21.83
2022-08-04T17:54:40.609Z,21.76
2022-08-04T17:57:27.686Z,21.72
2022-08-04T18:00:19.331Z,21.69
2022-08-04T18:03:00.250Z,21.65
2022-08-04T18:06:02.023Z,21.59
2022-08-04T18:08:50.091Z,21.52
2022-08-04T18:11:44.138Z,21.46
2022-08-04T18:14:54.121Z,21.40
2022-08-04T18:18:21.726Z,21.35
2022-08-04T18:21:11.127Z,21.25
2022-08-04T18:24:06.129Z,21.20
2022-08-04T18:26:59.140Z,21.17
2022-08-04T18:29:39.572Z,21.12
2022-08-04T18:32:34.372Z,21.08
2022-08-04T18:36:31.401Z,21.01
2022-08-04T18:42:04.183Z,20.85
2022-08-04T18:44:52.636Z,20.78
2022-08-04T18:47:29.741Z,20.71
2022-08-04T18:50:58.553Z,20.64
2022-08-04T18:53:17.121Z,20.56
2022-08-04T18:56:04.177Z,20.49
2022-08-04T18:58:47.151Z,20.44
2022-08-04T19:02:15.814Z,20.41
2022-08-04T19:04:52.304Z,20.35
2022-08-04T19:07:32.156Z,20.31
2022-08-04T19:10:26.731Z,20.25
2022-08-04T19:13:24.883Z,20.18
2022-08-04T19:16:00.238Z,20.09
2022-08-04T19:18:47.137Z,20.01
2022-08-04T19:21:20.278Z,19.95
2022-08-04T19:24:31.545Z,19.86
2022-08-04T19:27:14.177Z,19.82
2022-08-04T19:29:50.235Z,19.80
2022-08-04T19:32:37.149Z,19.73
2022-08-04T19:35:14.310Z,19.68
2022-08-04T19:38:04.075Z,19.62
2022-08-04T19:40:37.278Z,19.55
2022-08-04T19:43:17.166Z,19.47
2022-08-04T19:45:58.186Z,19.42
2022-08-04T19:48:31.682Z,19.35
2022-08-04T19:51:18.164Z,19.25
2022-08-04T19:54:02.740Z,19.18
2022-08-04T19:56:58.178Z,19.09
2022-08-04T19:59:48.322Z,18.99
2022-08-04T20:02:22.262Z,18.93
2022-08-04T20:05:12.182Z,18.88
2022-08-04T20:07:46.403Z,18.81
2022-08-04T20:10:27.194Z,18.72
2022-08-04T20:13:10.523Z,18.65
2022-08-04T20:15:57.549Z,18.57
2022-08-04T20:18:55.482Z,18.50
2022-08-04T20:21:54.015Z,18.44
2022-08-04T20:24:40.482Z,18.34
2022-08-04T20:27:38.609Z,18.24
2022-08-04T20:30:37.179Z,18.13
2022-08-04T20:33:13.988Z,18.07
2022-08-04T20:36:06.685Z,18.01
2022-08-04T20:38:51.994Z,17.92
2022-08-04T20:41:46.200Z,17.85
2022-08-04T20:44:33.247Z,17.80
2022-08-04T20:47:07.309Z,17.74
2022-08-04T20:49:54.227Z,17.69
2022-08-04T20:52:27.352Z,17.66
2022-08-04T20:55:15.206Z,17.61
2022-08-04T20:57:50.989Z,17.57
2022-08-04T21:00:39.203Z,17.52
2022-08-04T21:03:12.286Z,17.49
2022-08-04T21:06:00.218Z,17.46
2022-08-04T21:08:35.293Z,17.42
2022-08-04T21:11:23.234Z,17.36
2022-08-04T21:13:57.300Z,17.33
2022-08-04T21:16:54.177Z,17.26
2022-08-04T21:19:37.872Z,17.23
2022-08-04T21:22:33.382Z,17.23
2022-08-04T21:25:20.233Z,17.19
2022-08-04T21:27:55.309Z,17.16
2022-08-04T21:30:54.764Z,17.11
2022-08-04T21:33:49.815Z,17.04
2022-08-04T21:36:37.245Z,16.99
2022-08-04T21:39:11.394Z,16.96
2022-08-04T21:42:28.898Z,16.93
2022-08-04T21:44:51.342Z,16.86
2022-08-04T21:47:46.208Z,16.84
2022-08-04T21:50:23.663Z,16.83
2022-08-04T21:53:19.873Z,16.79
2022-08-04T21:56:06.222Z,16.77
2022-08-04T21:58:54.249Z,16.74
2022-08-04T22:01:50.127Z,16.70
2022-08-04T22:04:32.247Z,16.67
2022-08-04T22:07:19.257Z,16.65
2022-08-04T22:10:22.503Z,16.60
2022-08-04T22:13:22.505Z,16.58
2022-08-04T22:16:03.904Z,16.53
2022-08-04T22:18:53.967Z,16.50
2022-08-04T22:21:28.248Z,16.49
2022-08-04T22:24:15.257Z,16.49
2022-08-04T22:26:56.249Z,16.45
2022-08-04T22:29:50.270Z,16.43
2022-08-04T22:32:44.342Z,16.42
2022-08-04T22:35:48.955Z,16.39
2022-08-04T22:38:48.687Z,16.36
2022-08-04T22:41:48.533Z,16.32
2022-08-04T22:44:48.273Z,16.24
2022-08-04T22:47:42.276Z,16.22
2022-08-04T22:50:47.268Z,16.17
2022-08-04T22:53:41.279Z,16.12
2022-08-04T22:56:37.852Z,16.11
2022-08-04T22:59:19.269Z,16.10
2022-08-04T23:02:15.299Z,16.07
2022-08-04T23:05:02.268Z,16.06
2022-08-04T23:07:47.112Z,16.02
2022-08-04T23:10:36.296Z,15.99
2022-08-04T23:13:16.273Z,15.95
2022-08-04T23:16:11.290Z,15.91
2022-08-04T23:19:09.973Z,15.90
2022-08-04T23:22:02.300Z,15.88
2022-08-04T23:24:35.372Z,15.85
2022-08-04T23:27:23.485Z,15.81
2022-08-04T23:30:03.298Z,15.79
2022-08-04T23:32:50.314Z,15.74
2022-08-04T23:35:31.311Z,15.69
2022-08-04T23:38:31.830Z,15.68
2022-08-04T23:41:13.771Z,15.62
2022-08-04T23:44:00.300Z,15.57
2022-08-04T23:46:42.278Z,15.55
2022-08-04T23:49:40.623Z,15.50
2022-08-04T23:52:30.121Z,15.44
2022-08-04T23:55:19.041Z,15.39
2022-08-04T23:58:05.587Z,15.39
